sensor_id;sensor_type;location;lat;lon;timestamp;P1;durP1;ratioP1;P2;durP2;ratioP2
54384;SDS011;40284;52.878;5.998;2023-10-08T00:01:15;4.72;;;1.40;;
54384;SDS011;40284;52.878;5.998;2023-10-08T00:03:42;2.42;;;1.13;;
54384;SDS011;40284;52.878;5.998;2023-10-08T00:06:16;1.80;;;1.13;;
54384;SDS011;40284;52.878;5.998;2023-10-08T00:08:44;1.98;;;1.20;;
54384;SDS011;40284;52.878;5.998;2023-10-08T00:11:10;3.90;;;1.40;;
54384;SDS011;40284;52.878;5.998;2023-10-08T00:13:36;3.10;;;1.13;;
54384;SDS011;40284;52.878;5.998;2023-10-08T00:16:07;3.47;;;1.23;;
54384;SDS011;40284;52.878;5.998;2023-10-08T00:18:37;3.28;;;1.40;;
54384;SDS011;40284;52.878;5.998;2023-10-08T00:21:04;4.38;;;1.92;;
54384;SDS011;40284;52.878;5.998;2023-10-08T00:23:36;4.82;;;1.50;;
54384;SDS011;40284;52.878;5.998;2023-10-08T00:26:07;4.53;;;1.25;;
54384;SDS011;40284;52.878;5.998;2023-10-08T00:28:33;1.92;;;0.88;;
54384;SDS011;40284;52.878;5.998;2023-10-08T00:31:02;1.83;;;0.93;;
54384;SDS011;40284;52.878;5.998;2023-10-08T00:33:36;5.90;;;1.10;;
54384;SDS011;40284;52.878;5.998;2023-10-08T00:36:02;2.25;;;0.70;;
54384;SDS011;40284;52.878;5.998;2023-10-08T00:38:42;2.72;;;0.95;;
54384;SDS011;40284;52.878;5.998;2023-10-08T00:41:15;2.90;;;0.88;;
54384;SDS011;40284;52.878;5.998;2023-10-08T00:43:42;1.67;;;1.00;;
54384;SDS011;40284;52.878;5.998;2023-10-08T00:46:10;4.10;;;1.00;;
54384;SDS011;40284;52.878;5.998;2023-10-08T00:48:56;2.75;;;0.82;;
54384;SDS011;40284;52.878;5.998;2023-10-08T00:51:24;6.95;;;2.70;;
54384;SDS011;40284;52.878;5.998;2023-10-08T00:53:56;5.38;;;2.20;;
54384;SDS011;40284;52.878;5.998;2023-10-08T00:56:30;5.70;;;1.73;;
54384;SDS011;40284;52.878;5.998;2023-10-08T00:59:22;3.08;;;1.30;;
54384;SDS011;40284;52.878;5.998;2023-10-08T01:01:49;3.20;;;1.65;;
54384;SDS011;40284;52.878;5.998;2023-10-08T01:04:30;1.52;;;1.13;;
54384;SDS011;40284;52.878;5.998;2023-10-08T01:07:00;2.00;;;1.48;;
54384;SDS011;40284;52.878;5.998;2023-10-08T01:09:35;2.35;;;0.90;;
54384;SDS011;40284;52.878;5.998;2023-10-08T01:14:37;3.85;;;1.77;;
54384;SDS011;40284;52.878;5.998;2023-10-08T01:17:07;3.78;;;1.75;;
54384;SDS011;40284;52.878;5.998;2023-10-08T01:19:33;2.40;;;1.70;;
54384;SDS011;40284;52.878;5.998;2023-10-08T01:22:07;3.17;;;2.40;;
54384;SDS011;40284;52.878;5.998;2023-10-08T01:24:38;4.50;;;1.90;;
54384;SDS011;40284;52.878;5.998;2023-10-08T01:27:05;2.97;;;1.77;;
54384;SDS011;40284;52.878;5.998;2023-10-08T01:29:35;2.63;;;1.70;;
54384;SDS011;40284;52.878;5.998;2023-10-08T01:32:01;2.80;;;1.30;;
54384;SDS011;40284;52.878;5.998;2023-10-08T01:34:28;4.75;;;2.05;;
54384;SDS011;40284;52.878;5.998;2023-10-08T01:37:01;3.00;;;1.50;;
54384;SDS011;40284;52.878;5.998;2023-10-08T01:39:34;2.47;;;1.27;;
54384;SDS011;40284;52.878;5.998;2023-10-08T01:42:00;1.55;;;0.98;;
54384;SDS011;40284;52.878;5.998;2023-10-08T01:44:26;1.33;;;0.98;;
54384;SDS011;40284;52.878;5.998;2023-10-08T01:46:54;2.20;;;1.00;;
54384;SDS011;40284;52.878;5.998;2023-10-08T01:49:23;3.15;;;1.27;;
54384;SDS011;40284;52.878;5.998;2023-10-08T01:51:54;2.55;;;1.10;;
54384;SDS011;40284;52.878;5.998;2023-10-08T01:54:20;1.70;;;0.98;;
54384;SDS011;40284;52.878;5.998;2023-10-08T01:56:47;1.80;;;1.00;;
54384;SDS011;40284;52.878;5.998;2023-10-08T01:59:14;2.00;;;0.90;;
54384;SDS011;40284;52.878;5.998;2023-10-08T02:01:41;2.50;;;1.00;;
54384;SDS011;40284;52.878;5.998;2023-10-08T02:04:08;2.78;;;1.30;;
54384;SDS011;40284;52.878;5.998;2023-10-08T02:06:35;1.33;;;0.80;;
54384;SDS011;40284;52.878;5.998;2023-10-08T02:09:01;1.58;;;0.85;;
54384;SDS011;40284;52.878;5.998;2023-10-08T02:11:46;1.85;;;0.82;;
54384;SDS011;40284;52.878;5.998;2023-10-08T02:14:15;1.80;;;0.90;;
54384;SDS011;40284;52.878;5.998;2023-10-08T02:16:42;1.23;;;0.65;;
54384;SDS011;40284;52.878;5.998;2023-10-08T02:19:09;1.77;;;0.70;;
54384;SDS011;40284;52.878;5.998;2023-10-08T02:21:40;1.50;;;1.00;;
54384;SDS011;40284;52.878;5.998;2023-10-08T02:24:06;1.70;;;1.00;;
54384;SDS011;40284;52.878;5.998;2023-10-08T02:26:34;2.90;;;1.13;;
54384;SDS011;40284;52.878;5.998;2023-10-08T02:29:03;2.95;;;1.10;;
54384;SDS011;40284;52.878;5.998;2023-10-08T02:31:39;1.45;;;0.70;;
54384;SDS011;40284;52.878;5.998;2023-10-08T02:34:08;2.58;;;1.30;;
54384;SDS011;40284;52.878;5.998;2023-10-08T02:36:35;1.02;;;0.57;;
54384;SDS011;40284;52.878;5.998;2023-10-08T02:39:04;3.55;;;1.00;;
54384;SDS011;40284;52.878;5.998;2023-10-08T02:41:38;10.27;;;3.78;;
54384;SDS011;40284;52.878;5.998;2023-10-08T02:44:06;5.20;;;2.30;;
54384;SDS011;40284;52.878;5.998;2023-10-08T02:46:37;2.85;;;0.93;;
54384;SDS011;40284;52.878;5.998;2023-10-08T02:49:05;4.20;;;1.00;;
54384;SDS011;40284;52.878;5.998;2023-10-08T02:51:35;1.92;;;0.90;;
54384;SDS011;40284;52.878;5.998;2023-10-08T02:54:01;2.17;;;0.80;;
54384;SDS011;40284;52.878;5.998;2023-10-08T02:56:30;3.42;;;0.90;;
54384;SDS011;40284;52.878;5.998;2023-10-08T02:58:57;1.88;;;1.05;;
54384;SDS011;40284;52.878;5.998;2023-10-08T03:01:23;3.42;;;0.93;;
54384;SDS011;40284;52.878;5.998;2023-10-08T03:03:50;1.67;;;0.90;;
54384;SDS011;40284;52.878;5.998;2023-10-08T03:06:27;4.03;;;1.70;;
54384;SDS011;40284;52.878;5.998;2023-10-08T03:08:57;5.82;;;2.42;;
54384;SDS011;40284;52.878;5.998;2023-10-08T03:11:29;3.88;;;1.02;;
54384;SDS011;40284;52.878;5.998;2023-10-08T03:13:56;5.20;;;1.63;;
54384;SDS011;40284;52.878;5.998;2023-10-08T03:16:22;3.53;;;1.25;;
54384;SDS011;40284;52.878;5.998;2023-10-08T03:19:01;3.90;;;1.23;;
54384;SDS011;40284;52.878;5.998;2023-10-08T03:21:30;2.13;;;1.40;;
54384;SDS011;40284;52.878;5.998;2023-10-08T03:24:02;4.13;;;1.38;;
54384;SDS011;40284;52.878;5.998;2023-10-08T03:26:37;4.65;;;1.40;;
54384;SDS011;40284;52.878;5.998;2023-10-08T03:29:05;5.35;;;1.35;;
54384;SDS011;40284;52.878;5.998;2023-10-08T03:31:41;3.80;;;1.30;;
54384;SDS011;40284;52.878;5.998;2023-10-08T03:34:15;6.70;;;2.47;;
54384;SDS011;40284;52.878;5.998;2023-10-08T03:36:43;4.28;;;2.03;;
54384;SDS011;40284;52.878;5.998;2023-10-08T03:39:10;3.50;;;1.85;;
54384;SDS011;40284;52.878;5.998;2023-10-08T03:41:38;8.38;;;1.92;;
54384;SDS011;40284;52.878;5.998;2023-10-08T03:44:05;3.33;;;1.55;;
54384;SDS011;40284;52.878;5.998;2023-10-08T03:46:37;2.38;;;1.83;;
54384;SDS011;40284;52.878;5.998;2023-10-08T03:49:15;3.10;;;1.10;;
54384;SDS011;40284;52.878;5.998;2023-10-08T03:51:47;2.75;;;1.23;;
54384;SDS011;40284;52.878;5.998;2023-10-08T03:54:17;2.60;;;1.17;;
54384;SDS011;40284;52.878;5.998;2023-10-08T03:56:54;4.63;;;1.63;;
54384;SDS011;40284;52.878;5.998;2023-10-08T03:59:21;4.25;;;1.42;;
54384;SDS011;40284;52.878;5.998;2023-10-08T04:02:02;3.60;;;1.40;;
54384;SDS011;40284;52.878;5.998;2023-10-08T04:04:35;6.15;;;2.80;;
54384;SDS011;40284;52.878;5.998;2023-10-08T04:07:18;4.30;;;1.83;;
54384;SDS011;40284;52.878;5.998;2023-10-08T04:09:50;3.90;;;1.50;;
54384;SDS011;40284;52.878;5.998;2023-10-08T04:12:30;4.25;;;1.60;;
54384;SDS011;40284;52.878;5.998;2023-10-08T04:15:00;3.97;;;1.70;;
54384;SDS011;40284;52.878;5.998;2023-10-08T04:17:26;5.03;;;1.80;;
54384;SDS011;40284;52.878;5.998;2023-10-08T04:19:54;4.05;;;1.95;;
54384;SDS011;40284;52.878;5.998;2023-10-08T04:22:23;5.13;;;1.73;;
54384;SDS011;40284;52.878;5.998;2023-10-08T04:24:49;9.75;;;1.77;;
54384;SDS011;40284;52.878;5.998;2023-10-08T04:27:15;2.78;;;1.88;;
54384;SDS011;40284;52.878;5.998;2023-10-08T04:29:43;5.28;;;2.08;;
54384;SDS011;40284;52.878;5.998;2023-10-08T04:32:14;5.75;;;2.05;;
54384;SDS011;40284;52.878;5.998;2023-10-08T04:34:47;6.45;;;2.05;;
54384;SDS011;40284;52.878;5.998;2023-10-08T04:37:15;4.90;;;1.75;;
54384;SDS011;40284;52.878;5.998;2023-10-08T04:39:45;4.35;;;2.28;;
54384;SDS011;40284;52.878;5.998;2023-10-08T04:42:23;6.65;;;2.00;;
54384;SDS011;40284;52.878;5.998;2023-10-08T04:44:52;3.75;;;2.28;;
54384;SDS011;40284;52.878;5.998;2023-10-08T04:47:19;6.13;;;2.00;;
54384;SDS011;40284;52.878;5.998;2023-10-08T04:49:57;4.65;;;1.92;;
54384;SDS011;40284;52.878;5.998;2023-10-08T04:52:23;4.60;;;1.95;;
54384;SDS011;40284;52.878;5.998;2023-10-08T04:54:52;7.80;;;2.17;;
54384;SDS011;40284;52.878;5.998;2023-10-08T04:57:19;5.97;;;2.47;;
54384;SDS011;40284;52.878;5.998;2023-10-08T04:59:50;2.65;;;1.80;;
54384;SDS011;40284;52.878;5.998;2023-10-08T05:02:17;4.07;;;2.00;;
54384;SDS011;40284;52.878;5.998;2023-10-08T05:05:01;4.28;;;1.92;;
54384;SDS011;40284;52.878;5.998;2023-10-08T05:07:50;5.13;;;2.00;;
54384;SDS011;40284;52.878;5.998;2023-10-08T05:10:16;8.52;;;2.95;;
54384;SDS011;40284;52.878;5.998;2023-10-08T05:12:51;4.88;;;2.00;;
54384;SDS011;40284;52.878;5.998;2023-10-08T05:15:30;4.72;;;2.33;;
54384;SDS011;40284;52.878;5.998;2023-10-08T05:18:07;5.22;;;1.95;;
54384;SDS011;40284;52.878;5.998;2023-10-08T05:20:42;4.65;;;1.90;;
54384;SDS011;40284;52.878;5.998;2023-10-08T05:23:15;4.17;;;2.10;;
54384;SDS011;40284;52.878;5.998;2023-10-08T05:25:48;4.75;;;2.15;;
54384;SDS011;40284;52.878;5.998;2023-10-08T05:28:24;7.07;;;2.67;;
54384;SDS011;40284;52.878;5.998;2023-10-08T05:30:50;6.50;;;2.25;;
54384;SDS011;40284;52.878;5.998;2023-10-08T05:33:35;3.85;;;2.38;;
54384;SDS011;40284;52.878;5.998;2023-10-08T05:36:19;13.70;;;2.67;;
54384;SDS011;40284;52.878;5.998;2023-10-08T05:38:53;5.85;;;2.22;;
54384;SDS011;40284;52.878;5.998;2023-10-08T05:41:28;8.48;;;2.30;;
54384;SDS011;40284;52.878;5.998;2023-10-08T05:44:07;5.93;;;2.20;;
54384;SDS011;40284;52.878;5.998;2023-10-08T05:46:48;4.63;;;2.28;;
54384;SDS011;40284;52.878;5.998;2023-10-08T05:49:23;5.43;;;2.30;;
54384;SDS011;40284;52.878;5.998;2023-10-08T05:51:55;6.72;;;2.22;;
54384;SDS011;40284;52.878;5.998;2023-10-08T05:54:22;5.57;;;2.28;;
54384;SDS011;40284;52.878;5.998;2023-10-08T05:56:55;7.28;;;2.33;;
54384;SDS011;40284;52.878;5.998;2023-10-08T06:02:21;5.32;;;2.25;;
54384;SDS011;40284;52.878;5.998;2023-10-08T06:05:06;5.90;;;2.38;;
54384;SDS011;40284;52.878;5.998;2023-10-08T06:15:43;6.22;;;2.25;;
54384;SDS011;40284;52.878;5.998;2023-10-08T06:18:22;7.38;;;2.50;;
54384;SDS011;40284;52.878;5.998;2023-10-08T06:20:52;8.30;;;2.40;;
54384;SDS011;40284;52.878;5.998;2023-10-08T06:23:23;8.20;;;2.50;;
54384;SDS011;40284;52.878;5.998;2023-10-08T06:25:50;6.97;;;2.33;;
54384;SDS011;40284;52.878;5.998;2023-10-08T06:28:24;9.00;;;2.85;;
54384;SDS011;40284;52.878;5.998;2023-10-08T06:30:51;6.72;;;2.38;;
54384;SDS011;40284;52.878;5.998;2023-10-08T06:33:25;6.85;;;2.97;;
54384;SDS011;40284;52.878;5.998;2023-10-08T06:36:04;6.80;;;2.45;;
54384;SDS011;40284;52.878;5.998;2023-10-08T06:38:39;7.35;;;2.92;;
54384;SDS011;40284;52.878;5.998;2023-10-08T06:41:06;6.18;;;2.17;;
54384;SDS011;40284;52.878;5.998;2023-10-08T06:43:39;5.57;;;1.85;;
54384;SDS011;40284;52.878;5.998;2023-10-08T06:46:08;8.70;;;1.92;;
54384;SDS011;40284;52.878;5.998;2023-10-08T06:48:40;4.40;;;2.33;;
54384;SDS011;40284;52.878;5.998;2023-10-08T06:51:10;7.43;;;2.53;;
54384;SDS011;40284;52.878;5.998;2023-10-08T06:53:40;7.22;;;2.35;;
54384;SDS011;40284;52.878;5.998;2023-10-08T06:56:06;5.85;;;2.28;;
54384;SDS011;40284;52.878;5.998;2023-10-08T06:58:35;4.78;;;2.47;;
54384;SDS011;40284;52.878;5.998;2023-10-08T07:01:01;5.78;;;2.30;;
54384;SDS011;40284;52.878;5.998;2023-10-08T07:03:33;9.27;;;2.30;;
54384;SDS011;40284;52.878;5.998;2023-10-08T07:05:59;5.85;;;2.03;;
54384;SDS011;40284;52.878;5.998;2023-10-08T07:08:41;7.80;;;3.00;;
54384;SDS011;40284;52.878;5.998;2023-10-08T07:11:08;6.18;;;2.38;;
54384;SDS011;40284;52.878;5.998;2023-10-08T07:13:37;5.57;;;2.25;;
54384;SDS011;40284;52.878;5.998;2023-10-08T07:16:05;4.55;;;2.13;;
54384;SDS011;40284;52.878;5.998;2023-10-08T07:18:36;5.32;;;2.30;;
54384;SDS011;40284;52.878;5.998;2023-10-08T07:21:02;11.02;;;2.50;;
54384;SDS011;40284;52.878;5.998;2023-10-08T07:23:29;7.05;;;2.33;;
54384;SDS011;40284;52.878;5.998;2023-10-08T07:26:00;11.23;;;2.25;;
54384;SDS011;40284;52.878;5.998;2023-10-08T07:28:39;4.72;;;1.90;;
54384;SDS011;40284;52.878;5.998;2023-10-08T07:31:12;6.07;;;2.55;;
54384;SDS011;40284;52.878;5.998;2023-10-08T07:33:41;5.80;;;2.28;;
54384;SDS011;40284;52.878;5.998;2023-10-08T07:36:10;5.13;;;2.17;;
54384;SDS011;40284;52.878;5.998;2023-10-08T07:38:43;10.43;;;3.47;;
54384;SDS011;40284;52.878;5.998;2023-10-08T07:41:12;8.80;;;3.13;;
54384;SDS011;40284;52.878;5.998;2023-10-08T07:43:43;6.32;;;2.30;;
54384;SDS011;40284;52.878;5.998;2023-10-08T07:46:22;8.18;;;3.00;;
54384;SDS011;40284;52.878;5.998;2023-10-08T07:48:51;5.93;;;1.90;;
54384;SDS011;40284;52.878;5.998;2023-10-08T07:51:17;12.30;;;4.07;;
54384;SDS011;40284;52.878;5.998;2023-10-08T07:53:52;9.55;;;2.53;;
54384;SDS011;40284;52.878;5.998;2023-10-08T07:56:21;5.90;;;2.08;;
54384;SDS011;40284;52.878;5.998;2023-10-08T07:58:48;6.13;;;2.40;;
54384;SDS011;40284;52.878;5.998;2023-10-08T08:01:15;6.97;;;2.10;;
54384;SDS011;40284;52.878;5.998;2023-10-08T08:03:41;5.60;;;2.22;;
54384;SDS011;40284;52.878;5.998;2023-10-08T08:06:07;6.68;;;3.38;;
54384;SDS011;40284;52.878;5.998;2023-10-08T08:08:34;6.53;;;2.30;;
54384;SDS011;40284;52.878;5.998;2023-10-08T08:11:01;5.03;;;2.15;;
54384;SDS011;40284;52.878;5.998;2023-10-08T08:13:37;8.80;;;3.22;;
54384;SDS011;40284;52.878;5.998;2023-10-08T08:16:03;7.78;;;2.80;;
54384;SDS011;40284;52.878;5.998;2023-10-08T08:18:48;5.22;;;2.70;;
54384;SDS011;40284;52.878;5.998;2023-10-08T08:21:15;9.18;;;3.35;;
54384;SDS011;40284;52.878;5.998;2023-10-08T08:23:42;10.05;;;2.67;;
54384;SDS011;40284;52.878;5.998;2023-10-08T08:26:13;5.55;;;2.33;;
54384;SDS011;40284;52.878;5.998;2023-10-08T08:28:51;6.93;;;2.50;;
54384;SDS011;40284;52.878;5.998;2023-10-08T08:31:19;6.30;;;2.47;;
54384;SDS011;40284;52.878;5.998;2023-10-08T08:33:45;8.10;;;2.53;;
54384;SDS011;40284;52.878;5.998;2023-10-08T08:36:18;7.65;;;2.22;;
54384;SDS011;40284;52.878;5.998;2023-10-08T08:38:44;5.35;;;2.42;;
54384;SDS011;40284;52.878;5.998;2023-10-08T08:41:10;6.63;;;2.20;;
54384;SDS011;40284;52.878;5.998;2023-10-08T08:43:37;8.88;;;2.28;;
54384;SDS011;40284;52.878;5.998;2023-10-08T08:46:09;8.65;;;2.40;;
54384;SDS011;40284;52.878;5.998;2023-10-08T08:48:41;8.85;;;2.83;;
54384;SDS011;40284;52.878;5.998;2023-10-08T08:51:09;10.57;;;2.40;;
54384;SDS011;40284;52.878;5.998;2023-10-08T08:53:36;7.72;;;2.40;;
54384;SDS011;40284;52.878;5.998;2023-10-08T08:56:02;5.18;;;1.77;;
54384;SDS011;40284;52.878;5.998;2023-10-08T08:58:32;5.07;;;1.92;;
54384;SDS011;40284;52.878;5.998;2023-10-08T09:01:01;11.48;;;1.95;;
54384;SDS011;40284;52.878;5.998;2023-10-08T09:03:28;6.47;;;2.15;;
54384;SDS011;40284;52.878;5.998;2023-10-08T09:05:58;3.85;;;1.38;;
54384;SDS011;40284;52.878;5.998;2023-10-08T09:08:42;8.85;;;1.40;;
54384;SDS011;40284;52.878;5.998;2023-10-08T09:11:16;7.75;;;2.15;;
54384;SDS011;40284;52.878;5.998;2023-10-08T09:13:43;8.53;;;2.10;;
54384;SDS011;40284;52.878;5.998;2023-10-08T09:16:13;8.20;;;1.58;;
54384;SDS011;40284;52.878;5.998;2023-10-08T09:18:43;8.30;;;2.03;;
54384;SDS011;40284;52.878;5.998;2023-10-08T09:21:11;5.45;;;1.80;;
54384;SDS011;40284;52.878;5.998;2023-10-08T09:23:43;6.65;;;1.60;;
54384;SDS011;40284;52.878;5.998;2023-10-08T09:26:12;5.32;;;1.77;;
54384;SDS011;40284;52.878;5.998;2023-10-08T09:28:45;12.45;;;2.67;;
54384;SDS011;40284;52.878;5.998;2023-10-08T09:31:16;10.13;;;1.88;;
54384;SDS011;40284;52.878;5.998;2023-10-08T09:34:00;7.95;;;1.63;;
54384;SDS011;40284;52.878;5.998;2023-10-08T09:36:29;8.35;;;2.03;;
54384;SDS011;40284;52.878;5.998;2023-10-08T09:38:59;5.50;;;1.50;;
54384;SDS011;40284;52.878;5.998;2023-10-08T09:41:29;7.97;;;1.65;;
54384;SDS011;40284;52.878;5.998;2023-10-08T09:43:56;7.65;;;1.55;;
54384;SDS011;40284;52.878;5.998;2023-10-08T09:46:29;7.15;;;1.58;;
54384;SDS011;40284;52.878;5.998;2023-10-08T09:48:58;6.80;;;1.73;;
54384;SDS011;40284;52.878;5.998;2023-10-08T09:51:25;9.35;;;1.70;;
54384;SDS011;40284;52.878;5.998;2023-10-08T09:56:29;4.57;;;1.50;;
54384;SDS011;40284;52.878;5.998;2023-10-08T09:58:59;5.00;;;1.73;;
54384;SDS011;40284;52.878;5.998;2023-10-08T10:01:26;11.10;;;2.45;;
54384;SDS011;40284;52.878;5.998;2023-10-08T10:03:52;9.40;;;1.75;;
54384;SDS011;40284;52.878;5.998;2023-10-08T10:06:18;7.90;;;1.85;;
54384;SDS011;40284;52.878;5.998;2023-10-08T10:08:45;7.50;;;1.83;;
54384;SDS011;40284;52.878;5.998;2023-10-08T10:11:13;9.50;;;1.88;;
54384;SDS011;40284;52.878;5.998;2023-10-08T10:13:41;9.90;;;1.63;;
54384;SDS011;40284;52.878;5.998;2023-10-08T10:16:13;7.90;;;2.08;;
54384;SDS011;40284;52.878;5.998;2023-10-08T10:18:39;8.63;;;1.65;;
54384;SDS011;40284;52.878;5.998;2023-10-08T10:23:44;9.50;;;1.83;;
54384;SDS011;40284;52.878;5.998;2023-10-08T10:26:23;5.55;;;1.70;;
54384;SDS011;40284;52.878;5.998;2023-10-08T10:31:40;6.53;;;1.70;;
54384;SDS011;40284;52.878;5.998;2023-10-08T10:34:11;5.57;;;1.48;;
54384;SDS011;40284;52.878;5.998;2023-10-08T10:36:41;6.20;;;1.80;;
54384;SDS011;40284;52.878;5.998;2023-10-08T10:39:08;8.15;;;1.50;;
54384;SDS011;40284;52.878;5.998;2023-10-08T10:41:54;8.75;;;2.22;;
54384;SDS011;40284;52.878;5.998;2023-10-08T10:44:26;8.32;;;1.63;;
54384;SDS011;40284;52.878;5.998;2023-10-08T10:46:55;11.20;;;1.85;;
54384;SDS011;40284;52.878;5.998;2023-10-08T10:49:40;7.93;;;2.13;;
54384;SDS011;40284;52.878;5.998;2023-10-08T10:55:04;6.40;;;1.90;;
54384;SDS011;40284;52.878;5.998;2023-10-08T10:57:40;9.10;;;1.70;;
54384;SDS011;40284;52.878;5.998;2023-10-08T11:00:07;9.40;;;1.70;;
54384;SDS011;40284;52.878;5.998;2023-10-08T11:02:56;7.75;;;2.25;;
54384;SDS011;40284;52.878;5.998;2023-10-08T11:05:27;5.25;;;1.73;;
54384;SDS011;40284;52.878;5.998;2023-10-08T11:07:57;9.10;;;2.00;;
54384;SDS011;40284;52.878;5.998;2023-10-08T11:10:36;6.15;;;1.88;;
54384;SDS011;40284;52.878;5.998;2023-10-08T11:13:08;10.55;;;1.90;;
54384;SDS011;40284;52.878;5.998;2023-10-08T11:15:43;9.23;;;1.77;;
54384;SDS011;40284;52.878;5.998;2023-10-08T11:18:14;6.25;;;1.60;;
54384;SDS011;40284;52.878;5.998;2023-10-08T11:20:41;8.77;;;2.00;;
54384;SDS011;40284;52.878;5.998;2023-10-08T11:23:09;7.32;;;1.83;;
54384;SDS011;40284;52.878;5.998;2023-10-08T11:25:54;7.90;;;2.05;;
54384;SDS011;40284;52.878;5.998;2023-10-08T11:28:25;8.30;;;1.98;;
54384;SDS011;40284;52.878;5.998;2023-10-08T11:30:52;6.82;;;1.50;;
54384;SDS011;40284;52.878;5.998;2023-10-08T11:33:18;8.13;;;1.63;;
54384;SDS011;40284;52.878;5.998;2023-10-08T11:35:55;8.52;;;2.10;;
54384;SDS011;40284;52.878;5.998;2023-10-08T11:38:21;8.80;;;2.78;;
54384;SDS011;40284;52.878;5.998;2023-10-08T11:40:47;4.95;;;1.65;;
54384;SDS011;40284;52.878;5.998;2023-10-08T11:43:22;6.93;;;1.60;;
54384;SDS011;40284;52.878;5.998;2023-10-08T11:45:48;4.70;;;1.70;;
54384;SDS011;40284;52.878;5.998;2023-10-08T11:48:14;6.13;;;1.60;;
54384;SDS011;40284;52.878;5.998;2023-10-08T11:50:47;9.10;;;1.90;;
54384;SDS011;40284;52.878;5.998;2023-10-08T11:53:15;6.45;;;1.90;;
54384;SDS011;40284;52.878;5.998;2023-10-08T11:55:44;7.22;;;1.92;;
54384;SDS011;40284;52.878;5.998;2023-10-08T11:58:13;4.45;;;1.58;;
54384;SDS011;40284;52.878;5.998;2023-10-08T12:00:43;5.30;;;1.67;;
54384;SDS011;40284;52.878;5.998;2023-10-08T12:03:12;8.35;;;1.90;;
54384;SDS011;40284;52.878;5.998;2023-10-08T12:05:43;8.98;;;2.58;;
54384;SDS011;40284;52.878;5.998;2023-10-08T12:08:13;6.07;;;1.77;;
54384;SDS011;40284;52.878;5.998;2023-10-08T12:10:41;9.18;;;2.10;;
54384;SDS011;40284;52.878;5.998;2023-10-08T12:13:08;7.10;;;1.67;;
54384;SDS011;40284;52.878;5.998;2023-10-08T12:15:35;8.70;;;2.10;;
54384;SDS011;40284;52.878;5.998;2023-10-08T12:18:06;6.72;;;1.88;;
54384;SDS011;40284;52.878;5.998;2023-10-08T12:21:05;7.82;;;1.70;;
54384;SDS011;40284;52.878;5.998;2023-10-08T12:23:40;7.07;;;1.75;;
54384;SDS011;40284;52.878;5.998;2023-10-08T12:26:08;6.95;;;1.50;;
54384;SDS011;40284;52.878;5.998;2023-10-08T12:28:35;6.05;;;1.48;;
54384;SDS011;40284;52.878;5.998;2023-10-08T12:31:04;6.22;;;1.65;;
54384;SDS011;40284;52.878;5.998;2023-10-08T12:33:30;6.20;;;1.80;;
54384;SDS011;40284;52.878;5.998;2023-10-08T12:35:56;5.63;;;1.45;;
54384;SDS011;40284;52.878;5.998;2023-10-08T12:38:23;6.63;;;1.60;;
54384;SDS011;40284;52.878;5.998;2023-10-08T12:40:52;12.10;;;1.95;;
54384;SDS011;40284;52.878;5.998;2023-10-08T12:43:19;8.07;;;1.65;;
54384;SDS011;40284;52.878;5.998;2023-10-08T12:45:46;7.60;;;1.83;;
54384;SDS011;40284;52.878;5.998;2023-10-08T12:48:18;11.82;;;2.13;;
54384;SDS011;40284;52.878;5.998;2023-10-08T12:50:44;8.80;;;1.80;;
54384;SDS011;40284;52.878;5.998;2023-10-08T12:53:10;5.32;;;1.30;;
54384;SDS011;40284;52.878;5.998;2023-10-08T12:55:39;5.82;;;1.85;;
54384;SDS011;40284;52.878;5.998;2023-10-08T12:58:06;6.75;;;1.60;;
54384;SDS011;40284;52.878;5.998;2023-10-08T13:00:37;8.65;;;1.80;;
54384;SDS011;40284;52.878;5.998;2023-10-08T13:03:06;8.27;;;1.88;;
54384;SDS011;40284;52.878;5.998;2023-10-08T13:05:41;9.02;;;1.73;;
54384;SDS011;40284;52.878;5.998;2023-10-08T13:08:09;12.07;;;2.17;;
54384;SDS011;40284;52.878;5.998;2023-10-08T13:10:38;6.65;;;1.40;;
54384;SDS011;40284;52.878;5.998;2023-10-08T13:13:09;7.93;;;3.03;;
54384;SDS011;40284;52.878;5.998;2023-10-08T13:15:36;9.68;;;1.85;;
54384;SDS011;40284;52.878;5.998;2023-10-08T13:18:02;5.85;;;1.75;;
54384;SDS011;40284;52.878;5.998;2023-10-08T13:20:29;6.07;;;1.88;;
54384;SDS011;40284;52.878;5.998;2023-10-08T13:23:02;10.05;;;1.90;;
54384;SDS011;40284;52.878;5.998;2023-10-08T13:25:31;5.45;;;1.83;;
54384;SDS011;40284;52.878;5.998;2023-10-08T13:28:01;7.97;;;1.75;;
54384;SDS011;40284;52.878;5.998;2023-10-08T13:30:27;5.03;;;1.50;;
54384;SDS011;40284;52.878;5.998;2023-10-08T13:32:53;6.70;;;1.75;;
54384;SDS011;40284;52.878;5.998;2023-10-08T13:35:19;8.88;;;1.73;;
54384;SDS011;40284;52.878;5.998;2023-10-08T13:37:45;9.23;;;1.77;;
54384;SDS011;40284;52.878;5.998;2023-10-08T13:40:13;7.55;;;2.30;;
54384;SDS011;40284;52.878;5.998;2023-10-08T13:42:43;6.35;;;1.75;;
54384;SDS011;40284;52.878;5.998;2023-10-08T13:45:10;7.32;;;1.85;;
54384;SDS011;40284;52.878;5.998;2023-10-08T13:47:51;6.38;;;1.73;;
54384;SDS011;40284;52.878;5.998;2023-10-08T13:50:17;10.95;;;2.78;;
54384;SDS011;40284;52.878;5.998;2023-10-08T13:52:43;7.35;;;1.80;;
54384;SDS011;40284;52.878;5.998;2023-10-08T13:55:09;9.70;;;1.80;;
54384;SDS011;40284;52.878;5.998;2023-10-08T13:57:42;5.65;;;1.60;;
54384;SDS011;40284;52.878;5.998;2023-10-08T14:00:09;8.52;;;1.67;;
54384;SDS011;40284;52.878;5.998;2023-10-08T14:02:43;6.25;;;1.90;;
54384;SDS011;40284;52.878;5.998;2023-10-08T14:05:10;10.32;;;1.88;;
54384;SDS011;40284;52.878;5.998;2023-10-08T14:07:40;7.63;;;1.70;;
54384;SDS011;40284;52.878;5.998;2023-10-08T14:10:09;8.20;;;1.67;;
54384;SDS011;40284;52.878;5.998;2023-10-08T14:12:43;10.65;;;2.08;;
54384;SDS011;40284;52.878;5.998;2023-10-08T14:15:14;10.23;;;1.92;;
54384;SDS011;40284;52.878;5.998;2023-10-08T14:17:41;5.45;;;1.40;;
54384;SDS011;40284;52.878;5.998;2023-10-08T14:20:08;4.60;;;1.65;;
54384;SDS011;40284;52.878;5.998;2023-10-08T14:22:38;5.80;;;1.48;;
54384;SDS011;40284;52.878;5.998;2023-10-08T14:25:06;8.23;;;2.10;;
54384;SDS011;40284;52.878;5.998;2023-10-08T14:27:37;6.75;;;2.25;;
54384;SDS011;40284;52.878;5.998;2023-10-08T14:30:07;10.30;;;2.17;;
54384;SDS011;40284;52.878;5.998;2023-10-08T14:32:43;5.32;;;1.33;;
54384;SDS011;40284;52.878;5.998;2023-10-08T14:35:12;8.98;;;1.70;;
54384;SDS011;40284;52.878;5.998;2023-10-08T14:37:57;5.72;;;1.70;;
54384;SDS011;40284;52.878;5.998;2023-10-08T14:40:41;8.60;;;1.52;;
54384;SDS011;40284;52.878;5.998;2023-10-08T14:43:26;5.82;;;1.50;;
54384;SDS011;40284;52.878;5.998;2023-10-08T14:45:56;7.22;;;2.35;;
54384;SDS011;40284;52.878;5.998;2023-10-08T14:48:24;6.82;;;1.33;;
54384;SDS011;40284;52.878;5.998;2023-10-08T14:50:54;6.60;;;1.77;;
54384;SDS011;40284;52.878;5.998;2023-10-08T14:53:21;9.95;;;1.85;;
54384;SDS011;40284;52.878;5.998;2023-10-08T14:55:49;4.70;;;1.60;;
54384;SDS011;40284;52.878;5.998;2023-10-08T14:58:16;6.90;;;1.35;;
54384;SDS011;40284;52.878;5.998;2023-10-08T15:00:43;6.35;;;1.80;;
54384;SDS011;40284;52.878;5.998;2023-10-08T15:03:10;7.53;;;1.63;;
54384;SDS011;40284;52.878;5.998;2023-10-08T15:05:37;7.32;;;2.40;;
54384;SDS011;40284;52.878;5.998;2023-10-08T15:08:07;8.95;;;1.88;;
54384;SDS011;40284;52.878;5.998;2023-10-08T15:10:40;5.40;;;1.58;;
54384;SDS011;40284;52.878;5.998;2023-10-08T15:13:09;6.25;;;1.60;;
54384;SDS011;40284;52.878;5.998;2023-10-08T15:15:36;7.63;;;1.90;;
54384;SDS011;40284;52.878;5.998;2023-10-08T15:18:05;9.18;;;1.85;;
54384;SDS011;40284;52.878;5.998;2023-10-08T15:20:31;8.68;;;2.28;;
54384;SDS011;40284;52.878;5.998;2023-10-08T15:22:58;9.70;;;2.33;;
54384;SDS011;40284;52.878;5.998;2023-10-08T15:25:25;3.78;;;1.50;;
54384;SDS011;40284;52.878;5.998;2023-10-08T15:27:51;7.05;;;2.10;;
54384;SDS011;40284;52.878;5.998;2023-10-08T15:30:18;6.10;;;1.73;;
54384;SDS011;40284;52.878;5.998;2023-10-08T15:32:45;7.80;;;2.00;;